sensor_id;sensor_type;location;lat;lon;timestamp;P1;durP1;ratioP1;P2;durP2;ratioP2
5054;SDS011;13829;48.990;8.346;2023-04-24T00:01:33;1.63;;;1.00;;
5054;SDS011;13829;48.990;8.346;2023-04-24T00:04:01;3.33;;;1.30;;
5054;SDS011;13829;48.990;8.346;2023-04-24T00:06:28;2.23;;;0.83;;
5054;SDS011;13829;48.990;8.346;2023-04-24T00:09:00;2.00;;;1.00;;
5054;SDS011;13829;48.990;8.346;2023-04-24T00:11:27;3.07;;;1.40;;
5054;SDS011;13829;48.990;8.346;2023-04-24T00:13:55;1.27;;;1.17;;
5054;SDS011;13829;48.990;8.346;2023-04-24T00:16:23;1.77;;;1.17;;
5054;SDS011;13829;48.990;8.346;2023-04-24T00:18:50;3.47;;;0.93;;
5054;SDS011;13829;48.990;8.346;2023-04-24T00:21:17;1.63;;;1.13;;
5054;SDS011;13829;48.990;8.346;2023-04-24T00:23:45;1.20;;;0.77;;
5054;SDS011;13829;48.990;8.346;2023-04-24T00:26:13;0.87;;;0.87;;
5054;SDS011;13829;48.990;8.346;2023-04-24T00:28:40;1.00;;;0.83;;
5054;SDS011;13829;48.990;8.346;2023-04-24T00:31:07;2.83;;;1.27;;
5054;SDS011;13829;48.990;8.346;2023-04-24T00:33:34;2.83;;;1.10;;
5054;SDS011;13829;48.990;8.346;2023-04-24T00:36:02;1.07;;;0.83;;
5054;SDS011;13829;48.990;8.346;2023-04-24T00:38:29;1.10;;;0.80;;
5054;SDS011;13829;48.990;8.346;2023-04-24T00:40:56;2.07;;;1.10;;
5054;SDS011;13829;48.990;8.346;2023-04-24T00:43:24;1.87;;;1.10;;
5054;SDS011;13829;48.990;8.346;2023-04-24T00:45:51;1.57;;;1.10;;
5054;SDS011;13829;48.990;8.346;2023-04-24T00:48:19;1.77;;;1.10;;
5054;SDS011;13829;48.990;8.346;2023-04-24T00:50:47;1.77;;;1.07;;
5054;SDS011;13829;48.990;8.346;2023-04-24T00:53:14;2.50;;;1.30;;
5054;SDS011;13829;48.990;8.346;2023-04-24T00:55:41;2.17;;;1.13;;
5054;SDS011;13829;48.990;8.346;2023-04-24T00:58:08;1.10;;;0.97;;
5054;SDS011;13829;48.990;8.346;2023-04-24T01:00:37;2.50;;;1.20;;
5054;SDS011;13829;48.990;8.346;2023-04-24T01:03:04;1.40;;;1.10;;
5054;SDS011;13829;48.990;8.346;2023-04-24T01:05:32;2.20;;;1.03;;
5054;SDS011;13829;48.990;8.346;2023-04-24T01:07:59;1.63;;;0.90;;
5054;SDS011;13829;48.990;8.346;2023-04-24T01:10:29;2.40;;;0.93;;
5054;SDS011;13829;48.990;8.346;2023-04-24T01:12:58;1.47;;;1.00;;
5054;SDS011;13829;48.990;8.346;2023-04-24T01:15:25;1.73;;;1.20;;
5054;SDS011;13829;48.990;8.346;2023-04-24T01:17:54;2.63;;;1.03;;
5054;SDS011;13829;48.990;8.346;2023-04-24T01:20:21;2.17;;;0.97;;
5054;SDS011;13829;48.990;8.346;2023-04-24T01:22:51;3.43;;;1.13;;
5054;SDS011;13829;48.990;8.346;2023-04-24T01:25:18;2.17;;;1.00;;
5054;SDS011;13829;48.990;8.346;2023-04-24T01:27:45;1.50;;;1.20;;
5054;SDS011;13829;48.990;8.346;2023-04-24T01:30:12;4.23;;;1.20;;
5054;SDS011;13829;48.990;8.346;2023-04-24T01:32:40;2.20;;;1.10;;
5054;SDS011;13829;48.990;8.346;2023-04-24T01:35:10;3.03;;;1.40;;
5054;SDS011;13829;48.990;8.346;2023-04-24T01:37:37;2.90;;;1.00;;
5054;SDS011;13829;48.990;8.346;2023-04-24T01:40:06;2.03;;;1.10;;
5054;SDS011;13829;48.990;8.346;2023-04-24T01:42:34;3.00;;;1.40;;
5054;SDS011;13829;48.990;8.346;2023-04-24T01:45:02;3.57;;;1.20;;
5054;SDS011;13829;48.990;8.346;2023-04-24T01:47:31;2.33;;;1.40;;
5054;SDS011;13829;48.990;8.346;2023-04-24T01:49:58;1.30;;;1.13;;
5054;SDS011;13829;48.990;8.346;2023-04-24T01:52:25;2.40;;;1.23;;
5054;SDS011;13829;48.990;8.346;2023-04-24T01:54:54;2.87;;;1.40;;
5054;SDS011;13829;48.990;8.346;2023-04-24T01:57:22;1.73;;;1.10;;
5054;SDS011;13829;48.990;8.346;2023-04-24T01:59:49;1.80;;;1.10;;
5054;SDS011;13829;48.990;8.346;2023-04-24T02:02:17;2.87;;;1.20;;
5054;SDS011;13829;48.990;8.346;2023-04-24T02:04:46;2.07;;;1.20;;
5054;SDS011;13829;48.990;8.346;2023-04-24T02:07:13;2.80;;;1.47;;
5054;SDS011;13829;48.990;8.346;2023-04-24T02:09:40;6.90;;;1.13;;
5054;SDS011;13829;48.990;8.346;2023-04-24T02:12:07;2.90;;;1.30;;
5054;SDS011;13829;48.990;8.346;2023-04-24T02:14:35;2.47;;;1.30;;
5054;SDS011;13829;48.990;8.346;2023-04-24T02:17:02;2.77;;;1.30;;
5054;SDS011;13829;48.990;8.346;2023-04-24T02:19:30;1.63;;;1.00;;
5054;SDS011;13829;48.990;8.346;2023-04-24T02:21:57;1.83;;;1.03;;
5054;SDS011;13829;48.990;8.346;2023-04-24T02:24:24;3.27;;;1.30;;
5054;SDS011;13829;48.990;8.346;2023-04-24T02:26:51;3.23;;;1.33;;
5054;SDS011;13829;48.990;8.346;2023-04-24T02:29:18;4.43;;;1.13;;
5054;SDS011;13829;48.990;8.346;2023-04-24T02:31:46;3.80;;;1.37;;
5054;SDS011;13829;48.990;8.346;2023-04-24T02:34:13;1.20;;;1.00;;
5054;SDS011;13829;48.990;8.346;2023-04-24T02:36:41;3.17;;;1.50;;
5054;SDS011;13829;48.990;8.346;2023-04-24T02:39:08;2.27;;;1.30;;
5054;SDS011;13829;48.990;8.346;2023-04-24T02:41:35;2.10;;;1.20;;
5054;SDS011;13829;48.990;8.346;2023-04-24T02:44:02;2.40;;;1.03;;
5054;SDS011;13829;48.990;8.346;2023-04-24T02:46:28;1.57;;;1.10;;
5054;SDS011;13829;48.990;8.346;2023-04-24T02:48:57;3.17;;;1.40;;
5054;SDS011;13829;48.990;8.346;2023-04-24T02:51:24;1.60;;;1.30;;
5054;SDS011;13829;48.990;8.346;2023-04-24T02:53:51;2.40;;;1.23;;
5054;SDS011;13829;48.990;8.346;2023-04-24T02:56:18;3.43;;;1.40;;
5054;SDS011;13829;48.990;8.346;2023-04-24T02:58:45;2.60;;;1.40;;
5054;SDS011;13829;48.990;8.346;2023-04-24T03:01:12;1.27;;;0.90;;
5054;SDS011;13829;48.990;8.346;2023-04-24T03:03:39;10.53;;;1.50;;
5054;SDS011;13829;48.990;8.346;2023-04-24T03:06:08;2.60;;;1.53;;
5054;SDS011;13829;48.990;8.346;2023-04-24T03:08:35;2.57;;;1.20;;
5054;SDS011;13829;48.990;8.346;2023-04-24T03:11:02;1.80;;;1.30;;
5054;SDS011;13829;48.990;8.346;2023-04-24T03:13:29;2.70;;;1.37;;
5054;SDS011;13829;48.990;8.346;2023-04-24T03:15:56;2.80;;;1.27;;
5054;SDS011;13829;48.990;8.346;2023-04-24T03:18:23;2.00;;;1.30;;
5054;SDS011;13829;48.990;8.346;2023-04-24T03:20:50;2.40;;;0.93;;
5054;SDS011;13829;48.990;8.346;2023-04-24T03:23:18;3.70;;;1.30;;
5054;SDS011;13829;48.990;8.346;2023-04-24T03:25:45;2.50;;;1.20;;
5054;SDS011;13829;48.990;8.346;2023-04-24T03:28:13;1.77;;;1.30;;
5054;SDS011;13829;48.990;8.346;2023-04-24T03:30:40;2.07;;;1.63;;
5054;SDS011;13829;48.990;8.346;2023-04-24T03:33:07;1.87;;;1.50;;
5054;SDS011;13829;48.990;8.346;2023-04-24T03:35:34;1.87;;;1.50;;
5054;SDS011;13829;48.990;8.346;2023-04-24T03:38:01;2.67;;;1.60;;
5054;SDS011;13829;48.990;8.346;2023-04-24T03:40:31;1.60;;;1.50;;
5054;SDS011;13829;48.990;8.346;2023-04-24T03:42:58;2.57;;;1.83;;
5054;SDS011;13829;48.990;8.346;2023-04-24T03:45:25;2.53;;;1.50;;
5054;SDS011;13829;48.990;8.346;2023-04-24T03:47:52;1.83;;;1.60;;
5054;SDS011;13829;48.990;8.346;2023-04-24T03:50:19;1.70;;;1.60;;
5054;SDS011;13829;48.990;8.346;2023-04-24T03:52:46;2.10;;;1.60;;
5054;SDS011;13829;48.990;8.346;2023-04-24T03:55:13;1.83;;;1.70;;
5054;SDS011;13829;48.990;8.346;2023-04-24T03:57:41;2.33;;;1.50;;
5054;SDS011;13829;48.990;8.346;2023-04-24T04:00:09;1.90;;;1.60;;
5054;SDS011;13829;48.990;8.346;2023-04-24T04:02:37;1.87;;;1.53;;
5054;SDS011;13829;48.990;8.346;2023-04-24T04:05:04;1.67;;;1.57;;
5054;SDS011;13829;48.990;8.346;2023-04-24T04:07:33;1.90;;;1.70;;
5054;SDS011;13829;48.990;8.346;2023-04-24T04:10:00;2.70;;;1.93;;
5054;SDS011;13829;48.990;8.346;2023-04-24T04:12:27;3.83;;;1.90;;
5054;SDS011;13829;48.990;8.346;2023-04-24T04:14:55;1.77;;;1.63;;
5054;SDS011;13829;48.990;8.346;2023-04-24T04:17:22;2.27;;;1.63;;
5054;SDS011;13829;48.990;8.346;2023-04-24T04:19:49;1.90;;;1.70;;
5054;SDS011;13829;48.990;8.346;2023-04-24T04:22:16;2.50;;;1.40;;
5054;SDS011;13829;48.990;8.346;2023-04-24T04:24:43;2.30;;;2.10;;
5054;SDS011;13829;48.990;8.346;2023-04-24T04:27:11;2.53;;;2.10;;
5054;SDS011;13829;48.990;8.346;2023-04-24T04:29:38;7.73;;;1.90;;
5054;SDS011;13829;48.990;8.346;2023-04-24T04:32:06;3.60;;;1.90;;
5054;SDS011;13829;48.990;8.346;2023-04-24T04:34:33;3.90;;;1.60;;
5054;SDS011;13829;48.990;8.346;2023-04-24T04:37:02;2.60;;;1.93;;
5054;SDS011;13829;48.990;8.346;2023-04-24T04:39:29;2.23;;;1.50;;
5054;SDS011;13829;48.990;8.346;2023-04-24T04:41:56;3.57;;;1.93;;
5054;SDS011;13829;48.990;8.346;2023-04-24T04:44:23;2.13;;;1.73;;
5054;SDS011;13829;48.990;8.346;2023-04-24T04:46:50;2.03;;;1.83;;
5054;SDS011;13829;48.990;8.346;2023-04-24T04:49:22;1.87;;;1.77;;
5054;SDS011;13829;48.990;8.346;2023-04-24T04:51:49;2.93;;;2.63;;
5054;SDS011;13829;48.990;8.346;2023-04-24T04:54:16;4.20;;;3.00;;
5054;SDS011;13829;48.990;8.346;2023-04-24T04:56:43;4.10;;;2.60;;
5054;SDS011;13829;48.990;8.346;2023-04-24T04:59:10;3.23;;;2.67;;
5054;SDS011;13829;48.990;8.346;2023-04-24T05:01:37;2.97;;;2.40;;
5054;SDS011;13829;48.990;8.346;2023-04-24T05:04:05;2.40;;;2.10;;
5054;SDS011;13829;48.990;8.346;2023-04-24T05:06:33;2.20;;;2.00;;
5054;SDS011;13829;48.990;8.346;2023-04-24T05:09:00;2.20;;;1.80;;
5054;SDS011;13829;48.990;8.346;2023-04-24T05:11:28;2.80;;;2.40;;
5054;SDS011;13829;48.990;8.346;2023-04-24T05:13:55;4.03;;;2.90;;
5054;SDS011;13829;48.990;8.346;2023-04-24T05:16:22;4.83;;;3.77;;
5054;SDS011;13829;48.990;8.346;2023-04-24T05:18:49;4.37;;;3.10;;
5054;SDS011;13829;48.990;8.346;2023-04-24T05:21:16;2.80;;;2.23;;
5054;SDS011;13829;48.990;8.346;2023-04-24T05:23:44;2.97;;;2.50;;
5054;SDS011;13829;48.990;8.346;2023-04-24T05:26:12;3.10;;;2.10;;
5054;SDS011;13829;48.990;8.346;2023-04-24T05:28:40;3.43;;;2.30;;
5054;SDS011;13829;48.990;8.346;2023-04-24T05:31:07;2.63;;;2.33;;
5054;SDS011;13829;48.990;8.346;2023-04-24T05:33:34;3.93;;;2.37;;
5054;SDS011;13829;48.990;8.346;2023-04-24T05:36:01;4.77;;;2.50;;
5054;SDS011;13829;48.990;8.346;2023-04-24T05:38:28;3.20;;;2.13;;
5054;SDS011;13829;48.990;8.346;2023-04-24T05:40:56;2.60;;;2.40;;
5054;SDS011;13829;48.990;8.346;2023-04-24T05:43:23;2.30;;;2.10;;
5054;SDS011;13829;48.990;8.346;2023-04-24T05:45:50;2.37;;;1.97;;
5054;SDS011;13829;48.990;8.346;2023-04-24T05:48:18;2.63;;;1.97;;
5054;SDS011;13829;48.990;8.346;2023-04-24T05:50:47;3.33;;;2.03;;
5054;SDS011;13829;48.990;8.346;2023-04-24T05:53:13;3.30;;;2.03;;
5054;SDS011;13829;48.990;8.346;2023-04-24T05:55:40;3.43;;;2.03;;
5054;SDS011;13829;48.990;8.346;2023-04-24T05:58:11;2.10;;;1.80;;
5054;SDS011;13829;48.990;8.346;2023-04-24T06:00:39;2.07;;;1.87;;
5054;SDS011;13829;48.990;8.346;2023-04-24T06:03:07;2.80;;;2.13;;
5054;SDS011;13829;48.990;8.346;2023-04-24T06:05:34;2.10;;;1.87;;
5054;SDS011;13829;48.990;8.346;2023-04-24T06:08:01;1.97;;;1.73;;
5054;SDS011;13829;48.990;8.346;2023-04-24T06:10:28;2.20;;;2.00;;
5054;SDS011;13829;48.990;8.346;2023-04-24T06:12:55;3.77;;;2.10;;
5054;SDS011;13829;48.990;8.346;2023-04-24T06:15:27;2.47;;;2.07;;
5054;SDS011;13829;48.990;8.346;2023-04-24T06:17:56;2.73;;;2.10;;
5054;SDS011;13829;48.990;8.346;2023-04-24T06:20:23;7.23;;;2.43;;
5054;SDS011;13829;48.990;8.346;2023-04-24T06:22:50;4.73;;;2.63;;
5054;SDS011;13829;48.990;8.346;2023-04-24T06:25:17;2.37;;;2.17;;
5054;SDS011;13829;48.990;8.346;2023-04-24T06:27:44;3.67;;;2.33;;
5054;SDS011;13829;48.990;8.346;2023-04-24T06:30:11;3.97;;;2.87;;
5054;SDS011;13829;48.990;8.346;2023-04-24T06:32:40;6.00;;;2.37;;
5054;SDS011;13829;48.990;8.346;2023-04-24T06:35:07;4.53;;;2.37;;
5054;SDS011;13829;48.990;8.346;2023-04-24T06:37:36;2.83;;;2.33;;
5054;SDS011;13829;48.990;8.346;2023-04-24T06:40:03;2.83;;;2.10;;
5054;SDS011;13829;48.990;8.346;2023-04-24T06:42:32;5.10;;;2.80;;
5054;SDS011;13829;48.990;8.346;2023-04-24T06:45:00;3.13;;;2.50;;
5054;SDS011;13829;48.990;8.346;2023-04-24T06:47:27;2.93;;;2.30;;
5054;SDS011;13829;48.990;8.346;2023-04-24T06:49:55;2.87;;;2.10;;
5054;SDS011;13829;48.990;8.346;2023-04-24T06:52:22;2.00;;;1.90;;
5054;SDS011;13829;48.990;8.346;2023-04-24T06:54:49;5.10;;;2.77;;
5054;SDS011;13829;48.990;8.346;2023-04-24T06:57:17;2.40;;;1.87;;
5054;SDS011;13829;48.990;8.346;2023-04-24T06:59:44;3.93;;;2.47;;
5054;SDS011;13829;48.990;8.346;2023-04-24T07:02:11;3.13;;;2.13;;
5054;SDS011;13829;48.990;8.346;2023-04-24T07:04:38;2.13;;;1.93;;
5054;SDS011;13829;48.990;8.346;2023-04-24T07:07:07;3.57;;;2.00;;
5054;SDS011;13829;48.990;8.346;2023-04-24T07:09:38;3.33;;;2.13;;
5054;SDS011;13829;48.990;8.346;2023-04-24T07:12:07;2.60;;;2.10;;
5054;SDS011;13829;48.990;8.346;2023-04-24T07:14:35;2.40;;;2.10;;
5054;SDS011;13829;48.990;8.346;2023-04-24T07:17:02;3.50;;;1.90;;
5054;SDS011;13829;48.990;8.346;2023-04-24T07:19:30;4.73;;;2.70;;
5054;SDS011;13829;48.990;8.346;2023-04-24T07:21:57;2.43;;;2.00;;
5054;SDS011;13829;48.990;8.346;2023-04-24T07:24:25;2.20;;;1.80;;
5054;SDS011;13829;48.990;8.346;2023-04-24T07:26:53;5.33;;;2.30;;
5054;SDS011;13829;48.990;8.346;2023-04-24T07:29:22;3.47;;;1.87;;
5054;SDS011;13829;48.990;8.346;2023-04-24T07:31:49;4.43;;;1.77;;
5054;SDS011;13829;48.990;8.346;2023-04-24T07:34:16;2.20;;;1.53;;
5054;SDS011;13829;48.990;8.346;2023-04-24T07:36:43;2.67;;;1.57;;
5054;SDS011;13829;48.990;8.346;2023-04-24T07:39:10;2.10;;;1.57;;
5054;SDS011;13829;48.990;8.346;2023-04-24T07:41:38;1.60;;;1.50;;
5054;SDS011;13829;48.990;8.346;2023-04-24T07:44:05;4.47;;;1.63;;
5054;SDS011;13829;48.990;8.346;2023-04-24T07:46:32;2.37;;;1.57;;
5054;SDS011;13829;48.990;8.346;2023-04-24T07:48:59;2.10;;;1.50;;
5054;SDS011;13829;48.990;8.346;2023-04-24T07:51:27;5.60;;;1.83;;
5054;SDS011;13829;48.990;8.346;2023-04-24T07:53:54;2.67;;;1.77;;
5054;SDS011;13829;48.990;8.346;2023-04-24T07:56:21;2.40;;;1.80;;
5054;SDS011;13829;48.990;8.346;2023-04-24T07:58:49;1.83;;;1.40;;
5054;SDS011;13829;48.990;8.346;2023-04-24T08:01:16;4.13;;;2.13;;
5054;SDS011;13829;48.990;8.346;2023-04-24T08:03:43;4.33;;;2.07;;
5054;SDS011;13829;48.990;8.346;2023-04-24T08:06:10;2.90;;;2.10;;
5054;SDS011;13829;48.990;8.346;2023-04-24T08:08:37;4.53;;;2.27;;
5054;SDS011;13829;48.990;8.346;2023-04-24T08:11:04;2.07;;;1.73;;
5054;SDS011;13829;48.990;8.346;2023-04-24T08:13:31;3.70;;;1.90;;
5054;SDS011;13829;48.990;8.346;2023-04-24T08:16:00;2.53;;;1.80;;
5054;SDS011;13829;48.990;8.346;2023-04-24T08:18:27;2.87;;;1.80;;
5054;SDS011;13829;48.990;8.346;2023-04-24T08:20:54;3.00;;;1.90;;
5054;SDS011;13829;48.990;8.346;2023-04-24T08:23:21;4.73;;;1.73;;
5054;SDS011;13829;48.990;8.346;2023-04-24T08:25:48;1.60;;;1.50;;
5054;SDS011;13829;48.990;8.346;2023-04-24T08:28:15;1.40;;;1.30;;
5054;SDS011;13829;48.990;8.346;2023-04-24T08:30:45;2.33;;;1.50;;
5054;SDS011;13829;48.990;8.346;2023-04-24T08:33:14;2.50;;;1.20;;
5054;SDS011;13829;48.990;8.346;2023-04-24T08:35:41;1.80;;;1.70;;
5054;SDS011;13829;48.990;8.346;2023-04-24T08:38:08;1.83;;;1.50;;
5054;SDS011;13829;48.990;8.346;2023-04-24T08:40:35;1.97;;;1.60;;
5054;SDS011;13829;48.990;8.346;2023-04-24T08:43:04;2.50;;;1.57;;
5054;SDS011;13829;48.990;8.346;2023-04-24T08:45:32;1.90;;;1.67;;
5054;SDS011;13829;48.990;8.346;2023-04-24T08:47:59;2.60;;;1.70;;
5054;SDS011;13829;48.990;8.346;2023-04-24T08:50:28;2.33;;;2.00;;
5054;SDS011;13829;48.990;8.346;2023-04-24T08:52:55;3.43;;;1.93;;
5054;SDS011;13829;48.990;8.346;2023-04-24T08:55:23;2.43;;;1.80;;
5054;SDS011;13829;48.990;8.346;2023-04-24T08:57:51;3.53;;;1.83;;
5054;SDS011;13829;48.990;8.346;2023-04-24T09:00:20;2.10;;;1.87;;
5054;SDS011;13829;48.990;8.346;2023-04-24T09:02:48;2.27;;;1.60;;
5054;SDS011;13829;48.990;8.346;2023-04-24T09:05:16;3.77;;;2.03;;
5054;SDS011;13829;48.990;8.346;2023-04-24T09:07:46;2.10;;;1.50;;
5054;SDS011;13829;48.990;8.346;2023-04-24T09:10:20;4.77;;;1.47;;
5054;SDS011;13829;48.990;8.346;2023-04-24T09:12:49;2.17;;;1.53;;
5054;SDS011;13829;48.990;8.346;2023-04-24T09:15:18;3.90;;;2.13;;
5054;SDS011;13829;48.990;8.346;2023-04-24T09:17:46;3.07;;;1.70;;
5054;SDS011;13829;48.990;8.346;2023-04-24T09:20:13;2.90;;;2.30;;
5054;SDS011;13829;48.990;8.346;2023-04-24T09:22:41;2.43;;;2.03;;
5054;SDS011;13829;48.990;8.346;2023-04-24T09:25:10;2.20;;;2.00;;
5054;SDS011;13829;48.990;8.346;2023-04-24T09:27:41;2.93;;;2.37;;
5054;SDS011;13829;48.990;8.346;2023-04-24T09:30:11;2.90;;;2.30;;
5054;SDS011;13829;48.990;8.346;2023-04-24T09:32:39;3.97;;;2.63;;
5054;SDS011;13829;48.990;8.346;2023-04-24T09:35:07;4.00;;;2.70;;
5054;SDS011;13829;48.990;8.346;2023-04-24T09:37:38;2.63;;;2.43;;
5054;SDS011;13829;48.990;8.346;2023-04-24T09:40:08;3.13;;;2.70;;
5054;SDS011;13829;48.990;8.346;2023-04-24T09:42:38;4.87;;;2.93;;
5054;SDS011;13829;48.990;8.346;2023-04-24T09:45:08;4.10;;;3.10;;
5054;SDS011;13829;48.990;8.346;2023-04-24T09:47:36;3.60;;;3.30;;
5054;SDS011;13829;48.990;8.346;2023-04-24T09:50:13;4.30;;;3.03;;
5054;SDS011;13829;48.990;8.346;2023-04-24T09:52:43;2.90;;;2.70;;
5054;SDS011;13829;48.990;8.346;2023-04-24T09:55:16;3.90;;;2.50;;
5054;SDS011;13829;48.990;8.346;2023-04-24T09:57:50;3.30;;;2.13;;
5054;SDS011;13829;48.990;8.346;2023-04-24T10:00:30;2.97;;;2.60;;
5054;SDS011;13829;48.990;8.346;2023-04-24T10:03:14;3.33;;;2.30;;
5054;SDS011;13829;48.990;8.346;2023-04-24T10:05:46;2.23;;;2.00;;
5054;SDS011;13829;48.990;8.346;2023-04-24T10:08:20;4.20;;;1.90;;
5054;SDS011;13829;48.990;8.346;2023-04-24T10:10:51;3.00;;;2.23;;
5054;SDS011;13829;48.990;8.346;2023-04-24T10:13:21;2.37;;;1.90;;
5054;SDS011;13829;48.990;8.346;2023-04-24T10:15:50;5.23;;;1.90;;
5054;SDS011;13829;48.990;8.346;2023-04-24T10:18:17;2.77;;;1.97;;
5054;SDS011;13829;48.990;8.346;2023-04-24T10:20:48;2.80;;;2.20;;
5054;SDS011;13829;48.990;8.346;2023-04-24T10:23:15;2.97;;;1.90;;
5054;SDS011;13829;48.990;8.346;2023-04-24T10:25:44;6.03;;;2.20;;
5054;SDS011;13829;48.990;8.346;2023-04-24T10:28:12;3.30;;;2.50;;
5054;SDS011;13829;48.990;8.346;2023-04-24T10:30:41;2.33;;;2.10;;
5054;SDS011;13829;48.990;8.346;2023-04-24T10:33:09;2.50;;;2.30;;
5054;SDS011;13829;48.990;8.346;2023-04-24T10:35:39;5.67;;;2.47;;
5054;SDS011;13829;48.990;8.346;2023-04-24T10:38:13;2.87;;;2.57;;
5054;SDS011;13829;48.990;8.346;2023-04-24T10:40:44;3.67;;;2.60;;
5054;SDS011;13829;48.990;8.346;2023-04-24T10:43:13;3.87;;;2.37;;
5054;SDS011;13829;48.990;8.346;2023-04-24T10:45:59;4.10;;;2.90;;
5054;SDS011;13829;48.990;8.346;2023-04-24T10:48:27;4.70;;;2.70;;
5054;SDS011;13829;48.990;8.346;2023-04-24T10:50:55;4.17;;;2.83;;
5054;SDS011;13829;48.990;8.346;2023-04-24T10:53:23;3.53;;;2.73;;
5054;SDS011;13829;48.990;8.346;2023-04-24T10:55:57;3.30;;;2.90;;
5054;SDS011;13829;48.990;8.346;2023-04-24T10:58:36;3.40;;;2.83;;
5054;SDS011;13829;48.990;8.346;2023-04-24T11:01:06;3.10;;;2.50;;
5054;SDS011;13829;48.990;8.346;2023-04-24T11:03:33;3.73;;;2.87;;
5054;SDS011;13829;48.990;8.346;2023-04-24T11:06:02;4.07;;;2.87;;
5054;SDS011;13829;48.990;8.346;2023-04-24T11:08:32;3.77;;;3.43;;
5054;SDS011;13829;48.990;8.346;2023-04-24T11:11:08;3.40;;;3.10;;
5054;SDS011;13829;48.990;8.346;2023-04-24T11:16:43;3.60;;;3.30;;
5054;SDS011;13829;48.990;8.346;2023-04-24T11:19:18;4.00;;;3.60;;
5054;SDS011;13829;48.990;8.346;2023-04-24T11:21:50;4.20;;;3.50;;
5054;SDS011;13829;48.990;8.346;2023-04-24T11:24:25;5.87;;;3.77;;
5054;SDS011;13829;48.990;8.346;2023-04-24T11:26:56;4.73;;;4.17;;
5054;SDS011;13829;48.990;8.346;2023-04-24T11:29:45;8.00;;;4.50;;
5054;SDS011;13829;48.990;8.346;2023-04-24T11:32:15;6.30;;;3.97;;
5054;SDS011;13829;48.990;8.346;2023-04-24T11:34:48;8.30;;;3.87;;
5054;SDS011;13829;48.990;8.346;2023-04-24T11:37:17;4.40;;;4.00;;
5054;SDS011;13829;48.990;8.346;2023-04-24T11:39:44;5.77;;;4.23;;
5054;SDS011;13829;48.990;8.346;2023-04-24T11:42:12;5.57;;;4.63;;
5054;SDS011;13829;48.990;8.346;2023-04-24T11:44:41;5.73;;;5.13;;
5054;SDS011;13829;48.990;8.346;2023-04-24T11:47:10;5.40;;;4.90;;
5054;SDS011;13829;48.990;8.346;2023-04-24T11:49:37;5.07;;;4.67;;
5054;SDS011;13829;48.990;8.346;2023-04-24T11:52:04;7.00;;;5.13;;
5054;SDS011;13829;48.990;8.346;2023-04-24T11:54:32;5.73;;;5.10;;
5054;SDS011;13829;48.990;8.346;2023-04-24T11:56:59;5.13;;;4.63;;
5054;SDS011;13829;48.990;8.346;2023-04-24T11:59:34;6.53;;;4.80;;
5054;SDS011;13829;48.990;8.346;2023-04-24T12:02:02;6.23;;;4.20;;
5054;SDS011;13829;48.990;8.346;2023-04-24T12:04:39;5.73;;;4.03;;
5054;SDS011;13829;48.990;8.346;2023-04-24T12:07:06;4.37;;;3.97;;
5054;SDS011;13829;48.990;8.346;2023-04-24T12:09:41;7.10;;;3.70;;
5054;SDS011;13829;48.990;8.346;2023-04-24T12:12:10;9.33;;;4.00;;
5054;SDS011;13829;48.990;8.346;2023-04-24T12:14:42;6.90;;;4.13;;
5054;SDS011;13829;48.990;8.346;2023-04-24T12:17:23;5.20;;;4.43;;
5054;SDS011;13829;48.990;8.346;2023-04-24T12:19:56;4.43;;;3.93;;
5054;SDS011;13829;48.990;8.346;2023-04-24T12:22:26;4.73;;;3.63;;
5054;SDS011;13829;48.990;8.346;2023-04-24T12:25:00;6.40;;;4.10;;
5054;SDS011;13829;48.990;8.346;2023-04-24T12:27:29;5.17;;;3.47;;
5054;SDS011;13829;48.990;8.346;2023-04-24T12:29:58;4.97;;;4.10;;
5054;SDS011;13829;48.990;8.346;2023-04-24T12:32:27;4.53;;;3.57;;
5054;SDS011;13829;48.990;8.346;2023-04-24T12:34:56;4.23;;;3.63;;
5054;SDS011;13829;48.990;8.346;2023-04-24T12:37:24;4.73;;;4.00;;
5054;SDS011;13829;48.990;8.346;2023-04-24T12:39:58;6.17;;;4.10;;
5054;SDS011;13829;48.990;8.346;2023-04-24T12:42:27;4.93;;;3.83;;
5054;SDS011;13829;48.990;8.346;2023-04-24T12:44:56;5.37;;;3.90;;
5054;SDS011;13829;48.990;8.346;2023-04-24T12:47:25;4.00;;;3.60;;
5054;SDS011;13829;48.990;8.346;2023-04-24T12:49:53;4.80;;;3.27;;
5054;SDS011;13829;48.990;8.346;2023-04-24T12:52:21;5.27;;;3.43;;
5054;SDS011;13829;48.990;8.346;2023-04-24T12:54:50;3.93;;;3.53;;
5054;SDS011;13829;48.990;8.346;2023-04-24T12:57:19;4.57;;;3.60;;
5054;SDS011;13829;48.990;8.346;2023-04-24T12:59:46;4.87;;;3.80;;
5054;SDS011;13829;48.990;8.346;2023-04-24T13:02:13;4.93;;;4.40;;
5054;SDS011;13829;48.990;8.346;2023-04-24T13:04:42;5.50;;;4.23;;
5054;SDS011;13829;48.990;8.346;2023-04-24T13:07:12;4.87;;;4.00;;
5054;SDS011;13829;48.990;8.346;2023-04-24T13:09:40;5.20;;;4.23;;
5054;SDS011;13829;48.990;8.346;2023-04-24T13:12:08;6.90;;;4.60;;
5054;SDS011;13829;48.990;8.346;2023-04-24T13:14:35;5.00;;;4.10;;
5054;SDS011;13829;48.990;8.346;2023-04-24T13:17:03;5.37;;;4.00;;
5054;SDS011;13829;48.990;8.346;2023-04-24T13:19:34;5.03;;;3.90;;
5054;SDS011;13829;48.990;8.346;2023-04-24T13:22:03;4.57;;;4.13;;
5054;SDS011;13829;48.990;8.346;2023-04-24T13:24:32;5.40;;;3.40;;
5054;SDS011;13829;48.990;8.346;2023-04-24T13:26:59;4.57;;;3.80;;
5054;SDS011;13829;48.990;8.346;2023-04-24T13:29:27;4.67;;;3.97;;
5054;SDS011;13829;48.990;8.346;2023-04-24T13:31:54;4.80;;;3.40;;
5054;SDS011;13829;48.990;8.346;2023-04-24T13:34:22;4.47;;;3.07;;
5054;SDS011;13829;48.990;8.346;2023-04-24T13:36:49;3.97;;;3.20;;
5054;SDS011;13829;48.990;8.346;2023-04-24T13:39:17;5.00;;;3.70;;
5054;SDS011;13829;48.990;8.346;2023-04-24T13:41:45;6.87;;;3.37;;
5054;SDS011;13829;48.990;8.346;2023-04-24T13:44:13;5.10;;;3.57;;
5054;SDS011;13829;48.990;8.346;2023-04-24T13:46:41;8.53;;;3.47;;
5054;SDS011;13829;48.990;8.346;2023-04-24T13:49:09;4.77;;;3.37;;
5054;SDS011;13829;48.990;8.346;2023-04-24T13:51:36;5.30;;;3.37;;
5054;SDS011;13829;48.990;8.346;2023-04-24T13:54:04;4.67;;;3.30;;
5054;SDS011;13829;48.990;8.346;2023-04-24T13:56:31;3.87;;;3.00;;
5054;SDS011;13829;48.990;8.346;2023-04-24T13:59:00;2.83;;;2.63;;
5054;SDS011;13829;48.990;8.346;2023-04-24T14:01:27;3.33;;;2.53;;
5054;SDS011;13829;48.990;8.346;2023-04-24T14:03:55;3.00;;;2.70;;
5054;SDS011;13829;48.990;8.346;2023-04-24T14:06:22;3.10;;;2.80;;
5054;SDS011;13829;48.990;8.346;2023-04-24T14:08:49;4.80;;;2.60;;
5054;SDS011;13829;48.990;8.346;2023-04-24T14:11:16;4.63;;;3.10;;
5054;SDS011;13829;48.990;8.346;2023-04-24T14:13:45;4.30;;;2.60;;
5054;SDS011;13829;48.990;8.346;2023-04-24T14:16:13;4.03;;;3.40;;
5054;SDS011;13829;48.990;8.346;2023-04-24T14:18:40;6.07;;;3.20;;
5054;SDS011;13829;48.990;8.346;2023-04-24T14:21:07;3.50;;;3.20;;
5054;SDS011;13829;48.990;8.346;2023-04-24T14:23:34;3.37;;;3.07;;
5054;SDS011;13829;48.990;8.346;2023-04-24T14:26:01;3.77;;;3.30;;
5054;SDS011;13829;48.990;8.346;2023-04-24T14:28:28;5.37;;;3.30;;
5054;SDS011;13829;48.990;8.346;2023-04-24T14:30:55;3.40;;;3.10;;
5054;SDS011;13829;48.990;8.346;2023-04-24T14:33:23;3.83;;;2.70;;
5054;SDS011;13829;48.990;8.346;2023-04-24T14:35:50;6.53;;;3.40;;
5054;SDS011;13829;48.990;8.346;2023-04-24T14:38:17;3.10;;;2.80;;
5054;SDS011;13829;48.990;8.346;2023-04-24T14:40:44;3.10;;;2.80;;
5054;SDS011;13829;48.990;8.346;2023-04-24T14:43:11;2.20;;;2.00;;
5054;SDS011;13829;48.990;8.346;2023-04-24T14:45:38;3.03;;;2.07;;
5054;SDS011;13829;48.990;8.346;2023-04-24T14:48:06;2.27;;;1.93;;
5054;SDS011;13829;48.990;8.346;2023-04-24T14:50:35;2.37;;;1.80;;
5054;SDS011;13829;48.990;8.346;2023-04-24T14:53:02;3.10;;;2.17;;
5054;SDS011;13829;48.990;8.346;2023-04-24T14:55:29;2.27;;;2.03;;
5054;SDS011;13829;48.990;8.346;2023-04-24T14:57:56;5.27;;;2.33;;
5054;SDS011;13829;48.990;8.346;2023-04-24T15:00:23;2.67;;;1.97;;
5054;SDS011;13829;48.990;8.346;2023-04-24T15:02:50;2.30;;;2.10;;
5054;SDS011;13829;48.990;8.346;2023-04-24T15:05:17;2.13;;;1.90;;
5054;SDS011;13829;48.990;8.346;2023-04-24T15:07:46;2.93;;;2.37;;
5054;SDS011;13829;48.990;8.346;2023-04-24T15:10:12;3.60;;;2.30;;